Time;durP1;ratioP1;P1;durP2;ratioP2;P2;SDS_P1;SDS_P2;PMS_P1;PMS_P2;Temp;Humidity;BMP_temperature;BMP_pressure;BME280_temperature;BME280_humidity;BME280_pressure;Samples;Min_cycle;Max_cycle;Signal;HPM_P1;HPM_P2
2021/10/25 00:01:02;;;;;;;;;37.25;34.00;;;;;11.68;52.36;101530.38;5081390;27;46995;-48
2021/10/25 00:03:28;;;;;;;;;33.50;30.50;;;;;11.66;52.34;101529.50;5081510;28;45216;-52
2021/10/25 00:05:53;;;;;;;;;35.00;31.75;;;;;11.66;52.45;101532.13;5082803;27;45325;-52
2021/10/25 00:08:18;;;;;;;;;34.50;32.00;;;;;11.63;52.35;101532.16;5082474;27;45546;-51
2021/10/25 00:10:45;;;;;;;;;34.75;32.25;;;;;11.59;52.26;101533.94;5081216;28;47678;-52
2021/10/25 00:13:10;;;;;;;;;40.00;33.75;;;;;11.57;52.33;101525.16;5082479;27;45323;-49
2021/10/25 00:15:37;;;;;;;;;33.75;30.75;;;;;11.54;52.38;101525.19;5082212;27;45286;-50
2021/10/25 00:18:04;;;;;;;;;41.00;32.75;;;;;11.51;52.44;101533.97;5081123;27;45323;-51
2021/10/25 00:20:30;;;;;;;;;34.50;31.00;;;;;11.48;52.57;101531.38;5082192;27;46145;-48
2021/10/25 00:22:56;;;;;;;;;35.50;33.00;;;;;11.46;52.43;101530.50;5082012;27;45344;-48
2021/10/25 00:25:21;;;;;;;;;41.25;33.75;;;;;11.43;52.21;101529.63;5082314;27;45321;-50
2021/10/25 00:27:47;;;;;;;;;34.50;32.50;;;;;11.37;52.26;101526.16;5093526;27;45602;-52
2021/10/25 00:30:12;;;;;;;;;35.50;32.75;;;;;11.36;52.44;101521.78;5100808;27;47008;-50
2021/10/25 00:32:38;;;;;;;;;34.50;31.50;;;;;11.33;52.67;101519.19;5082234;27;45422;-51
2021/10/25 00:35:04;;;;;;;;;38.75;31.75;;;;;11.30;52.39;101513.91;5082115;27;45304;-51
2021/10/25 00:37:29;;;;;;;;;35.25;33.75;;;;;11.27;52.48;101511.31;5081874;27;45303;-50
2021/10/25 00:39:55;;;;;;;;;40.75;30.00;;;;;11.23;52.47;101506.91;5081977;27;46271;-51
2021/10/25 00:42:20;;;;;;;;;33.00;31.75;;;;;11.22;52.43;101507.81;5082168;27;45342;-50
2021/10/25 00:44:45;;;;;;;;;35.75;32.75;;;;;11.18;52.61;101516.59;5080749;27;45281;-49
2021/10/25 00:47:11;;;;;;;;;38.25;30.25;;;;;11.14;52.42;101507.84;5082020;27;45319;-50
2021/10/25 00:49:36;;;;;;;;;41.75;31.50;;;;;11.12;52.55;101506.09;5093906;27;46181;-51
2021/10/25 00:52:02;;;;;;;;;35.25;32.25;;;;;11.08;52.72;101505.25;5063714;28;45229;-51
2021/10/25 00:54:29;;;;;;;;;32.75;30.25;;;;;11.06;52.55;101504.38;5082005;27;45334;-52
2021/10/25 00:56:54;;;;;;;;;38.75;31.75;;;;;11.03;52.52;101507.00;5081845;27;45421;-51
2021/10/25 00:59:20;;;;;;;;;40.50;32.00;;;;;10.99;52.62;101500.91;5080298;27;46140;-51
2021/10/25 01:01:46;;;;;;;;;30.25;29.00;;;;;10.98;52.54;101490.38;5081969;27;45448;-50
2021/10/25 01:04:12;;;;;;;;;29.50;26.00;;;;;10.95;52.51;101499.16;5081782;27;45215;-52
2021/10/25 01:06:38;;;;;;;;;34.50;28.00;;;;;10.93;52.54;101500.03;5081627;27;45241;-52
2021/10/25 01:09:06;;;;;;;;;29.00;29.00;;;;;10.90;52.62;101498.28;5081320;27;46294;-51
2021/10/25 01:11:33;;;;;;;;;30.50;29.50;;;;;10.87;52.67;101495.69;5080402;27;45296;-50
2021/10/25 01:14:01;;;;;;;;;28.50;26.75;;;;;10.84;52.65;101495.69;5081653;27;45247;-48
2021/10/25 01:16:27;;;;;;;;;28.75;26.75;;;;;10.81;52.78;101496.56;5080886;27;45170;-50
2021/10/25 01:18:56;;;;;;;;;28.75;27.25;;;;;10.83;52.62;101504.44;5080161;27;46283;-51
2021/10/25 01:21:22;;;;;;;;;29.25;27.50;;;;;10.80;52.57;101499.22;5080307;27;45370;-52
2021/10/25 01:23:50;;;;;;;;;30.50;27.00;;;;;10.80;52.52;101499.22;5079918;27;45307;-52
2021/10/25 01:26:16;;;;;;;;;28.75;27.50;;;;;10.79;52.86;101497.44;5078805;28;45308;-50
2021/10/25 01:28:41;;;;;;;;;27.25;25.50;;;;;10.78;52.68;101495.69;5098493;27;47113;-50
2021/10/25 01:31:07;;;;;;;;;26.75;25.50;;;;;10.77;52.73;101500.09;5090552;27;45340;-50
2021/10/25 01:33:34;;;;;;;;;32.50;29.00;;;;;10.77;52.65;101501.81;5078712;27;45221;-50
2021/10/25 01:36:01;;;;;;;;;23.25;20.75;;;;;10.76;52.76;101497.47;5079173;27;45343;-52
2021/10/25 01:38:26;;;;;;;;;29.75;25.50;;;;;10.75;52.85;101490.47;5079421;27;47088;-49
2021/10/25 01:40:52;;;;;;;;;25.50;24.25;;;;;10.75;52.74;101493.97;5080032;27;45299;-51
2021/10/25 01:43:18;;;;;;;;;24.25;19.75;;;;;10.75;52.58;101493.97;5079679;27;45311;-51
2021/10/25 01:45:47;;;;;;;;;25.50;21.75;;;;;10.76;52.91;101508.84;5079629;27;45351;-51
2021/10/25 01:48:12;;;;;;;;;24.50;21.50;;;;;10.77;52.99;101499.19;5080406;27;45467;-49
2021/10/25 01:50:38;;;;;;;;;25.50;24.25;;;;;10.79;52.92;101500.09;5090804;27;45229;-50
2021/10/25 01:53:04;;;;;;;;;26.50;25.25;;;;;10.78;53.15;101496.59;5079542;27;45458;-48
2021/10/25 01:55:30;;;;;;;;;26.50;24.50;;;;;10.81;52.94;101506.22;5079453;27;45268;-50
2021/10/25 01:57:56;;;;;;;;;20.75;18.25;;;;;10.82;53.13;101497.47;5079419;28;45294;-47
2021/10/25 02:00:22;;;;;;;;;25.00;22.50;;;;;10.82;53.03;101495.69;5079503;27;45289;-51
2021/10/25 02:02:48;;;;;;;;;28.75;25.50;;;;;10.82;53.16;101494.84;5079517;27;45330;-52
2021/10/25 02:05:13;;;;;;;;;24.00;21.75;;;;;10.83;53.07;101488.66;5079331;27;45312;-51
2021/10/25 02:07:38;;;;;;;;;26.00;22.50;;;;;10.81;53.33;101487.81;5077663;28;46686;-53
2021/10/25 02:10:06;;;;;;;;;24.75;22.75;;;;;10.84;53.04;101485.16;5079339;27;45160;-51
2021/10/25 02:12:31;;;;;;;;;29.00;25.50;;;;;10.85;53.13;101492.19;5079417;27;45288;-52
2021/10/25 02:14:57;;;;;;;;;27.25;25.75;;;;;10.86;53.19;101484.28;5079005;28;45204;-50
2021/10/25 02:17:22;;;;;;;;;25.25;24.25;;;;;10.85;53.01;101477.25;5038746;27;1165281;-52
2021/10/25 02:19:50;;;;;;;;;28.75;23.25;;;;;10.86;53.20;101468.50;5080676;27;45326;-50
2021/10/25 02:22:15;;;;;;;;;21.75;21.50;;;;;10.85;53.21;101477.25;5080504;27;45345;-52
2021/10/25 02:24:43;;;;;;;;;26.75;24.25;;;;;10.89;53.22;101471.13;5079265;28;45339;-50
2021/10/25 02:27:08;;;;;;;;;30.00;26.75;;;;;10.92;53.26;101466.72;5084626;27;45383;-50
2021/10/25 02:29:35;;;;;;;;;25.75;22.50;;;;;10.92;53.33;101457.09;5099519;27;45185;-50
2021/10/25 02:32:05;;;;;;;;;22.50;22.50;;;;;10.94;53.33;101462.34;5084776;27;45170;-47
2021/10/25 02:34:32;;;;;;;;;29.75;25.75;;;;;10.93;53.29;101453.59;5080375;27;45469;-50
2021/10/25 02:36:58;;;;;;;;;24.00;23.75;;;;;10.97;53.18;101465.84;5079866;27;46053;-47
2021/10/25 02:39:24;;;;;;;;;27.25;23.50;;;;;10.99;53.40;101466.72;5080361;28;45489;-52
2021/10/25 02:41:50;;;;;;;;;28.50;26.00;;;;;11.01;53.28;101456.19;5080197;27;45240;-50
2021/10/25 02:44:15;;;;;;;;;29.00;25.50;;;;;11.00;53.40;101449.16;5079002;27;45190;-49
2021/10/25 02:46:41;;;;;;;;;21.50;21.25;;;;;11.02;53.37;101448.28;5078782;27;45263;-51
2021/10/25 02:49:06;;;;;;;;;25.00;23.75;;;;;11.06;53.27;101455.25;5088900;27;45235;-52
2021/10/25 02:51:32;;;;;;;;;23.00;21.50;;;;;11.07;53.29;101450.91;5084238;27;45199;-48
2021/10/25 02:53:57;;;;;;;;;25.50;24.25;;;;;11.08;53.25;101450.03;5079934;27;45299;-51
2021/10/25 02:56:23;;;;;;;;;25.50;24.75;;;;;11.12;53.27;101464.00;5079944;28;46205;-51
2021/10/25 02:58:48;;;;;;;;;20.00;19.50;;;;;11.12;53.52;101449.13;5079990;27;45383;-52
2021/10/25 03:01:14;;;;;;;;;28.25;26.75;;;;;11.14;53.39;101438.56;5080308;27;45612;-48
2021/10/25 03:03:39;;;;;;;;;20.00;20.00;;;;;11.16;53.32;101442.09;5080170;27;45544;-50
2021/10/25 03:06:05;;;;;;;;;23.50;20.00;;;;;11.17;53.42;101435.91;5079771;27;46138;-50
2021/10/25 03:08:30;;;;;;;;;22.25;20.00;;;;;11.18;53.26;101435.03;5079893;27;45410;-50
2021/10/25 03:10:55;;;;;;;;;22.50;20.50;;;;;11.19;53.29;101428.91;5080019;27;45388;-52
2021/10/25 03:13:21;;;;;;;;;28.00;22.75;;;;;11.21;53.28;101440.31;5079987;27;45324;-48
2021/10/25 03:15:47;;;;;;;;;25.50;21.00;;;;;11.22;53.28;101442.91;5079515;27;46065;-52
2021/10/25 03:18:14;;;;;;;;;24.50;22.50;;;;;11.25;53.37;101431.50;5078657;27;45354;-47
2021/10/25 03:20:40;;;;;;;;;22.50;19.75;;;;;11.23;53.50;101438.50;5079807;27;45513;-52
2021/10/25 03:23:05;;;;;;;;;24.75;19.75;;;;;11.25;53.23;101449.91;5079444;28;45263;-50
2021/10/25 03:25:31;;;;;;;;;19.25;17.25;;;;;11.29;53.38;101437.63;5079526;27;45977;-51
2021/10/25 03:27:56;;;;;;;;;22.25;21.50;;;;;11.27;53.29;101435.00;5090935;27;45246;-52
2021/10/25 03:30:22;;;;;;;;;22.25;20.00;;;;;11.29;53.57;101430.59;5096884;27;45290;-52
2021/10/25 03:32:48;;;;;;;;;21.25;19.75;;;;;11.32;53.32;101437.59;5079722;27;45200;-50
2021/10/25 03:35:13;;;;;;;;;22.25;20.00;;;;;11.32;53.31;101429.69;5079241;27;45541;-51
2021/10/25 03:37:39;;;;;;;;;23.50;20.75;;;;;11.33;53.27;101434.97;5079409;27;45354;-50
2021/10/25 03:40:06;;;;;;;;;22.00;20.50;;;;;11.33;53.38;101442.88;5079584;27;45262;-51
2021/10/25 03:42:38;;;;;;;;;22.50;20.00;;;;;11.36;53.34;101447.22;5079559;28;45314;-50
2021/10/25 03:50:20;;;;;;;;;20.25;17.50;;;;;11.37;53.30;101441.06;5092015;27;45465;-51
2021/10/25 03:55:41;;;;;;;;;18.50;17.50;;;;;11.41;53.35;101440.19;5077912;27;45320;-49
2021/10/25 04:30:22;;;;;;;;;21.00;21.00;;;;;11.46;53.56;101445.38;5096028;27;45348;-51
2021/10/25 04:32:48;;;;;;;;;25.25;22.25;;;;;11.47;53.58;101449.78;5082368;27;45360;-51
2021/10/25 04:35:14;;;;;;;;;23.00;20.75;;;;;11.46;53.45;101450.66;5080703;27;45468;-51
2021/10/25 04:37:40;;;;;;;;;21.50;21.25;;;;;11.48;53.55;101454.16;5081924;27;45453;-48
2021/10/25 04:40:07;;;;;;;;;19.75;18.25;;;;;11.45;53.43;101447.16;5082049;27;45202;-49
2021/10/25 04:42:33;;;;;;;;;22.25;21.25;;;;;11.48;53.48;101444.53;5082144;27;45310;-50
2021/10/25 04:44:59;;;;;;;;;25.25;23.00;;;;;11.48;53.62;101441.00;5080853;27;45375;-50
2021/10/25 04:47:25;;;;;;;;;23.75;22.50;;;;;11.48;53.50;101441.00;5081955;27;45555;-52
2021/10/25 04:49:50;;;;;;;;;28.50;24.00;;;;;11.49;53.73;101448.88;5092867;27;45367;-50
2021/10/25 04:52:16;;;;;;;;;26.75;23.25;;;;;11.50;53.65;101457.66;5080633;28;45386;-51
2021/10/25 04:54:41;;;;;;;;;24.25;22.75;;;;;11.48;53.75;101452.41;5081705;28;45366;-48
2021/10/25 04:57:07;;;;;;;;;22.25;21.25;;;;;11.47;53.99;101442.78;5081563;27;46141;-49
2021/10/25 04:59:33;;;;;;;;;24.00;23.50;;;;;11.46;53.82;101446.28;5081902;27;45443;-49
2021/10/25 05:01:59;;;;;;;;;22.50;20.00;;;;;11.46;53.75;101445.38;5081948;27;45303;-51
2021/10/25 05:04:24;;;;;;;;;23.75;20.00;;;;;11.45;54.26;101438.41;5081655;27;45208;-48
2021/10/25 05:06:50;;;;;;;;;19.25;19.00;;;;;11.41;53.88;101432.28;5080151;28;47050;-48
2021/10/25 05:09:15;;;;;;;;;24.50;23.25;;;;;11.42;54.02;101438.41;5080512;27;45275;-50
2021/10/25 05:11:41;;;;;;;;;23.25;20.75;;;;;11.40;54.06;101434.94;5081735;28;45221;-51
2021/10/25 05:14:07;;;;;;;;;19.50;19.00;;;;;11.40;54.05;101432.31;5081511;27;45287;-51
2021/10/25 05:16:33;;;;;;;;;22.75;20.00;;;;;11.37;53.97;101428.78;5081036;27;46206;-52
2021/10/25 05:18:58;;;;;;;;;22.00;20.00;;;;;11.37;53.86;101428.78;5081474;27;45264;-51
2021/10/25 05:21:23;;;;;;;;;22.75;20.00;;;;;11.37;54.03;101431.44;5081737;27;45331;-51
2021/10/25 05:23:49;;;;;;;;;22.25;20.00;;;;;11.35;54.10;101430.56;5079675;28;45568;-50
2021/10/25 05:26:14;;;;;;;;;14.75;12.25;;;;;11.35;54.04;101422.66;5081376;27;45508;-52
2021/10/25 05:28:40;;;;;;;;;18.25;18.25;;;;;11.34;54.14;101425.31;5099682;27;45664;-50
2021/10/25 05:31:07;;;;;;;;;21.00;20.25;;;;;11.32;54.32;101424.44;5093670;27;45456;-52
2021/10/25 05:33:33;;;;;;;;;24.00;22.00;;;;;11.31;54.34;101415.69;5081232;27;45501;-47
2021/10/25 05:35:59;;;;;;;;;21.50;17.25;;;;;11.30;54.34;101419.19;5081091;27;46014;-52
2021/10/25 05:38:25;;;;;;;;;23.50;20.00;;;;;11.29;54.38;101420.06;5080883;27;45193;-52
2021/10/25 05:40:51;;;;;;;;;20.25;19.00;;;;;11.29;54.88;101422.69;5081131;27;45404;-49
2021/10/25 05:43:16;;;;;;;;;23.25;21.00;;;;;11.28;54.34;101413.06;5080828;27;45176;-50
2021/10/25 05:45:42;;;;;;;;;24.00;21.00;;;;;11.24;54.49;101406.06;5081105;27;45371;-50
2021/10/25 05:48:07;;;;;;;;;19.50;19.50;;;;;11.27;54.49;101410.44;5079838;27;45274;-50
2021/10/25 05:50:32;;;;;;;;;25.00;20.25;;;;;11.27;54.71;101407.81;5092601;27;45770;-50
2021/10/25 05:52:59;;;;;;;;;26.50;25.50;;;;;11.26;54.52;101409.56;5079361;27;45298;-54
2021/10/25 05:55:25;;;;;;;;;24.00;20.75;;;;;11.26;54.63;101414.84;5080818;27;46980;-54
2021/10/25 05:57:55;;;;;;;;;21.75;19.25;;;;;11.26;54.56;101414.84;5080526;27;45308;-50
2021/10/25 06:00:26;;;;;;;;;28.50;24.00;;;;;11.24;54.70;101411.31;5080961;27;45203;-49
2021/10/25 06:02:55;;;;;;;;;25.00;21.75;;;;;11.24;54.91;101400.81;5080781;27;45397;-51
2021/10/25 06:05:22;;;;;;;;;24.25;22.00;;;;;11.24;54.75;101400.81;5080626;27;46370;-53
2021/10/25 06:07:49;;;;;;;;;22.00;20.75;;;;;11.24;54.81;101405.22;5079023;27;45777;-52
2021/10/25 06:10:15;;;;;;;;;26.75;23.00;;;;;11.23;54.89;101404.31;5080770;27;45410;-49
2021/10/25 06:12:44;;;;;;;;;26.00;23.50;;;;;11.21;54.87;101401.69;5079111;27;45359;-51
2021/10/25 06:15:16;;;;;;;;;25.75;23.75;;;;;11.22;54.95;101402.59;5080472;27;46358;-52
2021/10/25 06:17:51;;;;;;;;;18.50;18.50;;;;;11.23;55.04;101412.19;5080116;27;45351;-52
2021/10/25 06:20:18;;;;;;;;;25.00;22.50;;;;;11.23;54.97;101401.69;5078955;28;45434;-52
2021/10/25 06:22:44;;;;;;;;;26.75;22.25;;;;;11.18;55.18;101401.72;5080117;27;45519;-52
2021/10/25 06:25:13;;;;;;;;;19.50;19.50;;;;;11.20;54.96;101397.31;5079009;27;48023;-52
2021/10/25 06:27:38;;;;;;;;;21.25;18.50;;;;;11.23;55.23;101406.94;5090374;27;45706;-53
2021/10/25 06:30:05;;;;;;;;;24.25;20.00;;;;;11.23;55.25;101409.56;5100860;27;45462;-53
2021/10/25 06:32:31;;;;;;;;;16.75;16.50;;;;;11.24;55.27;101411.31;5080704;27;45355;-53
2021/10/25 06:34:59;;;;;;;;;19.25;17.00;;;;;11.24;55.37;101415.72;5080252;27;46172;-52
2021/10/25 06:37:31;;;;;;;;;19.50;18.50;;;;;11.23;55.28;101414.84;5079947;27;45386;-51
2021/10/25 06:39:57;;;;;;;;;21.75;20.25;;;;;11.24;55.24;101415.72;5080244;27;45471;-49
2021/10/25 06:42:25;;;;;;;;;21.25;19.00;;;;;11.24;55.46;101424.47;5079969;27;45312;-51
2021/10/25 06:44:53;;;;;;;;;15.50;14.75;;;;;11.24;55.40;101421.84;5080074;27;47024;-51
2021/10/25 06:47:21;;;;;;;;;21.00;19.75;;;;;11.24;55.51;101415.72;5079940;27;45476;-53
2021/10/25 06:49:46;;;;;;;;;20.50;18.75;;;;;11.24;55.61;101431.50;5093266;27;45422;-51
2021/10/25 06:52:12;;;;;;;;;23.25;19.00;;;;;11.22;55.59;101429.75;5078648;28;45450;-51
2021/10/25 06:54:37;;;;;;;;;18.25;18.00;;;;;11.21;55.75;101440.31;5080086;27;45397;-53
2021/10/25 06:57:03;;;;;;;;;18.50;16.50;;;;;11.17;55.80;101449.06;5079816;27;45346;-49
2021/10/25 06:59:28;;;;;;;;;20.75;18.50;;;;;11.19;55.82;101447.31;5081065;27;45236;-52
2021/10/25 07:01:54;;;;;;;;;21.75;17.75;;;;;11.19;55.92;101453.47;5100476;27;45240;-49
2021/10/25 07:04:20;;;;;;;;;19.50;17.75;;;;;11.04;56.20;101433.38;5100255;27;47026;-53
2021/10/25 07:06:45;;;;;;;;;20.25;19.25;;;;;11.15;56.16;101450.84;5081783;27;45793;-52
2021/10/25 07:09:11;;;;;;;;;18.75;17.00;;;;;11.15;56.26;101454.34;5100570;27;45228;-53
2021/10/25 07:11:42;;;;;;;;;20.50;20.00;;;;;11.15;56.24;101437.69;5099043;27;45519;-51
2021/10/25 07:14:08;;;;;;;;;21.00;19.50;;;;;11.15;56.39;101443.81;5099928;27;45627;-50
2021/10/25 07:16:41;;;;;;;;;19.00;18.00;;;;;11.14;56.53;101457.00;5099843;27;45244;-52
2021/10/25 08:00:09;;;;;;;;;35.25;30.50;;;;;11.36;57.09;101474.41;5082506;27;45283;-47
2021/10/25 08:10:39;;;;;;;;;32.25;31.00;;;;;11.40;57.50;101479.66;5082414;27;45373;-52
2021/10/25 08:13:12;;;;;;;;;36.25;32.25;;;;;11.41;57.55;101487.56;5081109;28;45648;-51
2021/10/25 08:15:44;;;;;;;;;34.50;33.00;;;;;11.42;57.85;101483.16;5082191;27;45230;-51
2021/10/25 08:18:33;;;;;;;;;31.50;28.75;;;;;11.41;57.88;101481.41;5082323;27;46204;-52
2021/10/25 08:20:58;;;;;;;;;34.50;32.50;;;;;11.42;57.87;101480.53;5080859;27;45585;-50
2021/10/25 08:23:24;;;;;;;;;39.00;33.50;;;;;11.43;57.87;101482.28;5080873;27;45450;-52
2021/10/25 08:25:49;;;;;;;;;40.00;33.00;;;;;11.41;57.96;101477.03;5082228;27;45547;-49
2021/10/25 08:28:15;;;;;;;;;30.50;26.50;;;;;11.42;57.93;101475.25;5085588;27;45420;-53
2021/10/25 08:30:41;;;;;;;;;28.00;22.25;;;;;11.42;58.00;101470.88;5095711;27;45282;-50
2021/10/25 08:39:46;;;;;;;;;26.25;25.75;;;;;11.40;58.29;101477.03;5102225;27;46047;-53
2021/10/25 08:41:08;;;;;;;;;23.75;21.50;;;;;11.38;58.38;101482.28;5102529;27;45203;-50
2021/10/25 08:43:34;;;;;;;;;25.50;21.50;;;;;11.37;58.42;101481.44;5102158;27;45371;-53
2021/10/25 08:46:05;;;;;;;;;23.50;22.50;;;;;11.36;58.61;101484.94;5102538;27;45430;-50
2021/10/25 08:48:30;;;;;;;;;33.00;29.75;;;;;11.40;58.52;101484.94;5102163;27;47278;-51
2021/10/25 08:50:57;;;;;;;;;30.50;25.50;;;;;11.37;58.55;101470.91;5090864;27;45201;-51
2021/10/25 08:53:22;;;;;;;;;28.25;23.50;;;;;11.40;58.55;101477.91;5080270;27;45173;-53
2021/10/25 08:55:50;;;;;;;;;24.25;23.50;;;;;11.41;58.55;101474.41;5081651;27;45456;-52
2021/10/25 08:58:17;;;;;;;;;25.75;25.00;;;;;11.40;58.72;101479.66;5081425;27;46333;-51
2021/10/25 09:00:45;;;;;;;;;23.75;23.75;;;;;11.43;59.01;101475.25;5081604;27;45335;-53
2021/10/25 09:03:11;;;;;;;;;29.00;25.50;;;;;11.43;58.75;101475.25;5081493;27;45303;-53
2021/10/25 09:05:37;;;;;;;;;32.25;31.25;;;;;11.39;59.04;101465.63;5081446;27;45181;-51
2021/10/25 09:08:12;;;;;;;;;29.00;26.75;;;;;11.48;58.95;101472.59;5081062;27;45381;-51
2021/10/25 09:10:45;;;;;;;;;32.00;27.75;;;;;11.50;58.97;101471.69;5081454;27;45294;-52
2021/10/25 09:13:27;;;;;;;;;31.00;27.50;;;;;11.51;59.11;101469.94;5081441;27;45287;-53
2021/10/25 09:15:54;;;;;;;;;30.50;26.00;;;;;11.56;58.96;101462.91;5081090;27;45313;-52
2021/10/25 09:18:21;;;;;;;;;30.50;27.50;;;;;11.59;59.08;101468.13;5080043;27;46228;-52
2021/10/25 09:20:51;;;;;;;;;28.00;25.25;;;;;11.64;59.10;101465.47;5081222;27;45338;-51
2021/10/25 09:23:20;;;;;;;;;34.75;28.50;;;;;11.65;59.30;101472.50;5081059;27;45476;-49
2021/10/25 09:26:01;;;;;;;;;27.25;25.50;;;;;11.70;59.34;101473.31;5081098;27;45249;-53
2021/10/25 09:28:33;;;;;;;;;26.00;24.50;;;;;11.74;59.19;101466.28;5096946;27;45410;-52
2021/10/25 09:31:06;;;;;;;;;31.50;28.25;;;;;11.76;59.26;101465.38;5081360;27;45418;-53
2021/10/25 09:33:36;;;;;;;;;29.25;26.75;;;;;11.82;59.39;101461.81;5081105;27;45363;-51
2021/10/25 09:36:06;;;;;;;;;31.00;28.00;;;;;11.87;59.41;101462.66;5080753;27;45350;-52
2021/10/25 09:49:33;;;;;;;;;38.75;33.25;;;;;12.16;59.68;101459.81;5091438;27;45253;-52
2021/10/25 09:52:01;;;;;;;;;35.25;31.75;;;;;12.22;59.82;101453.59;5079379;27;45406;-53
2021/10/25 09:54:28;;;;;;;;;38.25;33.00;;;;;12.29;59.83;101452.66;5081163;28;45354;-50
2021/10/25 09:57:07;;;;;;;;;29.50;25.00;;;;;12.38;59.70;101456.97;5080050;27;45480;-51
2021/10/25 09:59:46;;;;;;;;;33.75;29.75;;;;;12.45;59.86;101458.66;5080702;27;46154;-49
2021/10/25 10:02:14;;;;;;;;;34.25;31.00;;;;;12.49;59.97;101452.44;5079504;28;45378;-51
2021/10/25 10:04:41;;;;;;;;;28.00;26.00;;;;;12.58;59.97;101459.38;5080482;28;45319;-52
2021/10/25 10:07:07;;;;;;;;;28.00;27.50;;;;;12.63;59.78;101457.56;5080256;27;45169;-52
2021/10/25 10:09:33;;;;;;;;;28.25;28.00;;;;;12.69;60.04;101467.16;5080509;27;45353;-52
2021/10/25 10:11:58;;;;;;;;;30.25;28.50;;;;;12.74;59.84;101464.47;5080401;27;45243;-51
2021/10/25 10:14:25;;;;;;;;;29.50;26.25;;;;;12.75;59.97;101459.19;5080528;27;45399;-51
2021/10/25 10:16:51;;;;;;;;;20.25;16.25;;;;;12.79;60.07;101457.38;5080323;28;45490;-51
2021/10/25 10:19:24;;;;;;;;;25.75;20.00;;;;;12.84;60.00;101458.19;5080197;27;46049;-50
2021/10/25 10:21:54;;;;;;;;;36.75;33.00;;;;;12.83;60.31;101454.69;5080084;27;45433;-53
2021/10/25 10:24:29;;;;;;;;;32.50;29.75;;;;;12.87;60.21;101474.00;5080570;27;45180;-49
2021/10/25 10:26:56;;;;;;;;;35.50;31.75;;;;;12.91;60.48;101473.06;5082808;27;45364;-51
2021/10/25 10:29:22;;;;;;;;;36.00;31.25;;;;;12.95;60.58;101464.22;5099592;27;47377;-52
2021/10/25 10:32:00;;;;;;;;;36.25;30.75;;;;;12.95;60.34;101472.13;5086697;27;45303;-51
2021/10/25 10:34:40;;;;;;;;;32.50;29.75;;;;;12.95;60.52;101464.22;5080426;27;45251;-52
2021/10/25 10:37:18;;;;;;;;;37.50;32.75;;;;;13.00;60.26;101466.81;5079874;27;45517;-49
2021/10/25 10:39:56;;;;;;;;;34.00;30.25;;;;;13.04;60.59;101468.50;5080250;28;45419;-52
2021/10/25 10:42:29;;;;;;;;;31.50;29.50;;;;;13.04;60.62;101463.22;5080319;27;45389;-51
2021/10/25 10:45:01;;;;;;;;;28.00;28.00;;;;;13.08;60.65;101466.69;5080137;27;45468;-52
2021/10/25 10:48:13;;;;;;;;;40.25;32.75;;;;;13.13;60.64;101472.78;5080188;27;45194;-54
2021/10/25 10:50:48;;;;;;;;;36.00;32.00;;;;;13.18;60.47;101478.88;5082507;27;45812;-53
2021/10/25 10:53:22;;;;;;;;;34.75;30.75;;;;;13.16;61.07;101467.47;5079843;27;45386;-53
2021/10/25 10:55:52;;;;;;;;;40.75;33.75;;;;;13.24;60.66;101464.72;5079995;27;45321;-55
2021/10/25 11:01:01;;;;;;;;;35.75;33.00;;;;;13.30;60.82;101476.06;5079945;27;46146;-53
2021/10/25 11:03:29;;;;;;;;;33.25;28.50;;;;;13.36;60.88;101475.13;5087442;27;45263;-53
2021/10/25 11:06:04;;;;;;;;;42.00;34.25;;;;;13.39;60.78;101475.09;5100145;27;45262;-53
2021/10/25 11:08:32;;;;;;;;;229.25;222.00;;;;;13.46;61.20;101479.41;5100214;27;45436;-52
2021/10/25 11:11:05;;;;;;;;;424.25;399.25;;;;;13.51;60.79;101474.06;5102177;27;47394;-52
2021/10/25 11:13:35;;;;;;;;;36.25;32.25;;;;;13.54;60.93;101476.66;5102445;27;45356;-53
2021/10/25 11:16:12;;;;;;;;;109.25;104.75;;;;;13.60;60.82;101470.41;5103518;27;45184;-52
2021/10/25 11:18:41;;;;;;;;;30.50;29.25;;;;;13.64;60.70;101467.69;5091069;27;45263;-54
2021/10/25 11:21:25;;;;;;;;;35.75;30.50;;;;;13.67;60.83;101471.19;5081791;27;47063;-51
2021/10/25 11:23:55;;;;;;;;;192.25;178.25;;;;;13.74;61.07;101467.56;5083343;27;45343;-54
2021/10/25 11:26:47;;;;;;;;;46.00;38.75;;;;;13.77;60.73;101473.66;5083389;27;45229;-52
2021/10/25 11:29:14;;;;;;;;;66.00;52.25;;;;;13.79;60.76;101479.78;5089108;27;45369;-51
2021/10/25 11:31:47;;;;;;;;;33.50;31.50;;;;;13.84;61.12;101481.50;5090643;27;45435;-52
2021/10/25 11:34:21;;;;;;;;;28.75;26.75;;;;;13.85;61.61;101478.81;5090102;27;45361;-50
2021/10/25 11:36:54;;;;;;;;;27.50;22.75;;;;;13.87;61.33;101479.66;5103237;27;45323;-52
2021/10/25 11:39:31;;;;;;;;;43.00;35.75;;;;;13.88;61.18;101472.63;5103344;27;45339;-51
2021/10/25 11:41:57;;;;;;;;;38.25;31.75;;;;;13.88;61.04;101465.56;5103317;27;45497;-54
2021/10/25 11:44:22;;;;;;;;;28.00;25.50;;;;;13.91;60.97;101475.19;5103416;27;45353;-51
2021/10/25 11:46:48;;;;;;;;;25.25;20.00;;;;;13.87;61.47;101468.22;5103366;27;45336;-53
2021/10/25 11:49:22;;;;;;;;;27.00;26.00;;;;;13.90;61.56;101469.06;5103286;27;45453;-53
2021/10/25 11:51:52;;;;;;;;;19.75;19.00;;;;;13.93;61.19;101470.78;5085097;27;45366;-53
2021/10/25 11:54:18;;;;;;;;;24.50;20.50;;;;;13.96;61.44;101470.72;5082992;27;45213;-53
2021/10/25 11:56:49;;;;;;;;;98.25;92.00;;;;;13.98;61.16;101469.78;5082722;27;45429;-54
2021/10/25 11:59:16;;;;;;;;;23.50;21.25;;;;;14.01;61.29;101473.28;5082665;27;45161;-52
2021/10/25 12:01:43;;;;;;;;;24.75;22.25;;;;;14.02;61.34;101470.59;5082229;27;46310;-51
2021/10/25 12:04:08;;;;;;;;;26.00;24.50;;;;;14.02;60.87;101467.97;5082519;27;45244;-52
2021/10/25 12:06:34;;;;;;;;;22.25;18.25;;;;;14.05;61.29;101472.31;5082232;27;45418;-51
2021/10/25 12:09:06;;;;;;;;;14.50;12.75;;;;;14.06;61.43;101469.69;5082632;27;45441;-53
2021/10/25 12:14:30;;;;;;;;;20.50;17.25;;;;;14.12;60.99;101471.31;5082559;27;45410;-52
2021/10/25 12:16:56;;;;;;;;;28.00;23.75;;;;;14.13;61.18;101462.50;5082246;27;45358;-53
2021/10/25 12:19:22;;;;;;;;;23.00;20.00;;;;;14.17;60.87;101461.53;5081581;27;45550;-53
2021/10/25 12:21:48;;;;;;;;;25.50;24.50;;;;;14.18;61.28;101465.94;5080535;27;45555;-53
2021/10/25 12:24:14;;;;;;;;;21.75;19.00;;;;;14.22;60.87;101459.69;5082039;27;45354;-52
2021/10/25 12:26:45;;;;;;;;;20.25;17.75;;;;;14.25;61.04;101456.13;5082810;27;45244;-53
2021/10/25 12:29:15;;;;;;;;;23.75;21.00;;;;;14.25;60.97;101457.00;5102337;27;45409;-53
2021/10/25 12:31:41;;;;;;;;;22.00;19.25;;;;;14.26;61.37;101452.56;5088179;27;47116;-51
2021/10/25 12:34:06;;;;;;;;;32.50;27.75;;;;;14.34;60.78;101447.13;5080738;27;45252;-54
2021/10/25 12:36:39;;;;;;;;;29.25;25.75;;;;;14.37;60.90;101447.09;5082057;27;45549;-54
2021/10/25 12:39:18;;;;;;;;;19.25;15.75;;;;;14.37;61.23;101433.88;5089103;27;45182;-52
2021/10/25 12:41:56;;;;;;;;;21.25;20.75;;;;;14.38;61.28;101420.63;5102459;27;45479;-54
2021/10/25 12:44:35;;;;;;;;;19.25;19.25;;;;;14.42;61.27;101421.44;5100992;27;45490;-53
2021/10/25 12:47:23;;;;;;;;;19.00;19.00;;;;;14.44;60.99;101423.16;5102326;27;45189;-53
2021/10/25 12:49:51;;;;;;;;;19.75;18.75;;;;;14.47;61.49;101414.28;5100727;27;45250;-54
2021/10/25 12:52:18;;;;;;;;;21.00;21.00;;;;;14.52;61.15;101414.22;5081530;27;45354;-53
2021/10/25 12:54:45;;;;;;;;;20.75;19.75;;;;;14.56;60.83;101414.09;5081813;27;45491;-50
2021/10/25 12:57:28;;;;;;;;;20.00;18.00;;;;;14.56;61.12;101427.31;5081691;27;45420;-51
2021/10/25 12:59:59;;;;;;;;;17.00;15.75;;;;;14.58;61.14;101414.94;5081675;27;45390;-53
2021/10/25 13:02:27;;;;;;;;;18.25;15.75;;;;;14.59;61.73;101424.63;5081637;27;46208;-49
2021/10/25 13:05:05;;;;;;;;;19.75;18.75;;;;;14.62;61.60;101426.34;5081340;27;45315;-53